KBVE

Boothville Airport

Boothville, Louisiana, USA
METAR KBVE 211451Z AUTO 05015G25KT 10SM OVC070 22/12 A3020 RMK AO2 SLP226 T02170122 51019 $
Observed Flight Rules
Oct-21 @ 14:51 UTC (28 minutes ago) Visual Flight Rules
Wind Visibility Clouds
50° at 15 knots
 Gusting to 25 knots
10 miles
  • Overcast at 7,000' AGL
Temperatures Readings
Current 22°C / 72°F
Dewpoint 12°C / 54°F
Humidity 53%
Altimeter 30.2" Hg
Pressure 1022.6 hPa
Elevation 1
METAR KBVE 211451Z AUTO 05015G25KT 10SM OVC070 22/12 A3020 RMK AO2 SLP226 T02170122 51019 $
Observed Flight Rules
Oct-21 @ 14:51 UTC
(28 minutes ago)
VFR
Wind Visibility
50° at 15 knots
 Gusting to 25 knots
10 miles
Clouds
  • Overcast at 7,000' AGL
Temperature Dewpoint
22°C / 72°F 12°C / 54°F
Humidity Altimeter Pressure
53% 30.2" Hg 1022.6 hPa